Time;durP1;ratioP1;P1;durP2;ratioP2;P2;SDS_P1;SDS_P2;PMS_P1;PMS_P2;Temp;Humidity;BMP_temperature;BMP_pressure;BME280_temperature;BME280_humidity;BME280_pressure;Samples;Min_cycle;Max_cycle;Signal;HPM_P1;HPM_P2
2023/12/19 00:00:05;;;;;;;41.95;28.50;;;;;;;3.38;100.00;102444.66;5019179;28;20030;-84
2023/12/19 00:02:30;;;;;;;43.88;28.40;;;;;;;3.40;100.00;102433.28;5022517;28;20086;-84
2023/12/19 00:04:56;;;;;;;44.83;29.75;;;;;;;3.38;100.00;102440.28;5015268;28;20166;-83
2023/12/19 00:07:21;;;;;;;45.13;28.92;;;;;;;3.40;100.00;102435.03;5013606;28;20030;-84
2023/12/19 00:09:46;;;;;;;45.85;29.05;;;;;;;3.36;100.00;102428.00;5017145;28;20108;-85
2023/12/19 00:12:12;;;;;;;42.25;29.33;;;;;;;3.42;100.00;102428.00;5016498;28;20502;-84
2023/12/19 00:14:37;;;;;;;43.25;29.23;;;;;;;3.41;100.00;102429.75;5013154;28;20054;-83
2023/12/19 00:17:02;;;;;;;44.05;29.73;;;;;;;3.42;100.00;102428.88;5018180;28;20060;-84
2023/12/19 00:19:28;;;;;;;45.15;30.33;;;;;;;3.39;100.00;102423.63;5014130;28;20136;-84
2023/12/19 00:21:53;;;;;;;39.65;29.10;;;;;;;3.45;100.00;102428.03;5015078;28;20034;-84
2023/12/19 00:24:18;;;;;;;42.90;29.45;;;;;;;3.42;100.00;102422.75;5019569;28;20037;-84
2023/12/19 00:26:44;;;;;;;43.50;29.90;;;;;;;3.45;100.00;102425.41;5024544;28;20040;-85
2023/12/19 00:29:09;;;;;;;43.80;29.42;;;;;;;3.46;100.00;102420.13;5023465;28;20442;-85
2023/12/19 00:31:35;;;;;;;43.33;30.33;;;;;;;3.39;100.00;102393.81;5023374;28;20053;-83
2023/12/19 00:34:00;;;;;;;45.95;29.25;;;;;;;3.42;100.00;102393.78;5012427;28;20045;-85
2023/12/19 00:36:25;;;;;;;42.83;28.98;;;;;;;3.50;100.00;102400.84;5014090;28;20121;-85
2023/12/19 00:38:51;;;;;;;44.97;30.88;;;;;;;3.50;100.00;102410.50;5002694;28;20080;-85
2023/12/19 00:41:16;;;;;;;47.00;30.48;;;;;;;3.42;100.00;102378.00;5016225;28;20063;-86
2023/12/19 00:43:43;;;;;;;47.00;30.17;;;;;;;3.53;100.00;102399.97;5018724;28;20046;-85
2023/12/19 00:46:09;;;;;;;41.97;30.40;;;;;;;3.51;100.00;102383.28;5012034;28;20038;-84
2023/12/19 00:48:34;;;;;;;44.72;29.40;;;;;;;3.56;100.00;102388.59;5014909;28;20026;-83
2023/12/19 00:51:00;;;;;;;45.17;28.63;;;;;;;3.56;100.00;102378.94;5028111;28;20033;-83
2023/12/19 00:53:25;;;;;;;43.92;31.25;;;;;;;3.43;100.00;102356.97;5020269;28;20082;-83
2023/12/19 00:55:50;;;;;;;47.20;30.50;;;;;;;3.56;100.00;102371.03;5023347;28;20030;-84
2023/12/19 00:58:16;;;;;;;45.72;30.30;;;;;;;3.58;100.00;102363.13;5012881;28;20105;-84
2023/12/19 01:00:41;;;;;;;49.45;31.65;;;;;;;3.58;100.00;102361.38;4991934;28;20129;-84
2023/12/19 01:03:06;;;;;;;50.72;32.13;;;;;;;3.60;100.00;102353.50;5008512;28;20021;-84
2023/12/19 01:05:32;;;;;;;46.53;31.77;;;;;;;3.53;100.00;102346.44;5002123;28;20061;-84
2023/12/19 01:07:57;;;;;;;50.38;32.63;;;;;;;3.53;100.00;102338.56;5015517;28;20052;-84
2023/12/19 01:10:22;;;;;;;50.90;32.50;;;;;;;3.58;100.00;102342.06;5013470;28;20044;-85
2023/12/19 01:12:48;;;;;;;51.05;33.65;;;;;;;3.60;100.00;102337.69;5019872;28;20140;-85
2023/12/19 01:15:13;;;;;;;47.70;32.33;;;;;;;3.61;100.00;102340.31;5000418;28;20034;-85
2023/12/19 01:17:39;;;;;;;53.42;35.03;;;;;;;3.58;100.00;102332.41;5003612;28;20026;-85
2023/12/19 01:20:05;;;;;;;54.47;34.25;;;;;;;3.56;100.00;102330.66;5012156;28;20435;-83
2023/12/19 01:22:30;;;;;;;54.17;34.92;;;;;;;3.54;100.00;102317.47;5020718;28;20037;-84
2023/12/19 01:24:55;;;;;;;58.47;35.72;;;;;;;3.55;100.00;102323.63;5005509;28;20039;-83
2023/12/19 01:27:21;;;;;;;54.20;34.63;;;;;;;3.61;100.00;102334.19;5023160;28;20034;-85
2023/12/19 01:29:47;;;;;;;63.38;36.50;;;;;;;3.48;100.00;102315.72;5010755;28;20129;-83
2023/12/19 01:32:12;;;;;;;57.47;34.42;;;;;;;3.59;100.00;102338.56;5014762;28;20040;-84
2023/12/19 01:34:37;;;;;;;63.33;36.45;;;;;;;3.58;100.00;102329.78;5031358;28;20037;-84
2023/12/19 01:37:03;;;;;;;57.83;35.33;;;;;;;3.61;100.00;102326.28;5020061;28;20034;-84
2023/12/19 01:39:28;;;;;;;59.90;36.50;;;;;;;3.59;100.00;102328.03;5030419;28;20046;-84
2023/12/19 01:41:54;;;;;;;60.70;36.88;;;;;;;3.62;100.00;102323.66;5037902;28;20423;-83
2023/12/19 01:44:20;;;;;;;60.13;36.17;;;;;;;3.54;100.00;102300.81;5023775;28;20047;-84
2023/12/19 01:46:49;;;;;;;60.80;36.08;;;;;;;3.61;100.00;102313.13;5024828;28;20030;-83
2023/12/19 01:49:14;;;;;;;60.95;37.15;;;;;;;3.58;100.00;102318.38;5028441;28;20037;-84
2023/12/19 01:51:40;;;;;;;58.80;36.88;;;;;;;3.63;100.00;102319.25;5018886;28;20034;-84
2023/12/19 01:54:07;;;;;;;58.60;36.97;;;;;;;3.62;100.00;102323.66;5027891;28;20349;-83
2023/12/19 01:56:34;;;;;;;59.58;36.30;;;;;;;3.65;100.00;102322.78;5024642;28;20539;-84
2023/12/19 01:59:00;;;;;;;61.05;37.53;;;;;;;3.62;100.00;102317.50;5012506;28;20410;-85
2023/12/19 02:01:26;;;;;;;61.72;37.10;;;;;;;3.60;100.00;102295.56;5030609;28;20033;-85
2023/12/19 02:03:52;;;;;;;59.50;37.35;;;;;;;3.62;100.00;102293.81;5035650;28;20039;-85
2023/12/19 02:06:19;;;;;;;59.47;36.40;;;;;;;3.63;100.00;102313.97;5030322;28;20030;-86
2023/12/19 02:08:44;;;;;;;56.70;36.30;;;;;;;3.64;100.00;102302.59;5033598;28;20037;-85
2023/12/19 02:11:10;;;;;;;62.90;36.80;;;;;;;3.57;100.00;102296.44;5034120;28;20045;-84
2023/12/19 02:13:37;;;;;;;62.20;36.50;;;;;;;3.66;100.00;102308.72;5022588;28;20049;-83
2023/12/19 02:16:06;;;;;;;56.25;34.55;;;;;;;3.67;100.00;102305.22;5034756;28;20080;-85
2023/12/19 02:18:31;;;;;;;57.55;35.22;;;;;;;3.68;100.00;102312.25;5019698;28;20030;-82
2023/12/19 02:20:56;;;;;;;56.47;34.15;;;;;;;3.67;100.00;102306.09;5039834;28;20100;-85
2023/12/19 02:23:22;;;;;;;57.72;34.35;;;;;;;3.68;100.00;102293.84;5029716;28;20045;-85
2023/12/19 02:25:47;;;;;;;54.70;34.05;;;;;;;3.71;100.00;102288.53;5035254;28;20034;-85
2023/12/19 02:28:13;;;;;;;51.97;33.70;;;;;;;3.69;100.00;102287.69;5022323;28;20041;-84
2023/12/19 02:30:38;;;;;;;57.17;34.72;;;;;;;3.68;100.00;102276.28;5028452;28;20049;-85
2023/12/19 02:33:07;;;;;;;51.50;33.47;;;;;;;3.65;100.00;102267.50;5034156;28;20040;-84
2023/12/19 02:35:32;;;;;;;57.70;33.58;;;;;;;3.61;100.00;102249.94;5038847;28;20125;-84
2023/12/19 02:37:57;;;;;;;58.08;34.55;;;;;;;3.63;100.00;102263.97;5027126;28;20056;-84
2023/12/19 02:40:23;;;;;;;62.83;34.78;;;;;;;3.56;100.00;102264.84;5014832;28;20041;-85
2023/12/19 02:42:49;;;;;;;59.47;34.88;;;;;;;3.58;100.00;102276.25;5021177;28;20033;-84
2023/12/19 02:45:15;;;;;;;60.58;34.65;;;;;;;3.59;100.00;102268.34;5017984;28;20128;-84
2023/12/19 02:47:41;;;;;;;53.92;32.40;;;;;;;3.49;100.00;102246.41;5010571;28;20661;-85
2023/12/19 02:50:07;;;;;;;57.70;34.05;;;;;;;3.48;100.00;102262.22;5006934;28;20168;-85
2023/12/19 02:52:32;;;;;;;60.45;34.08;;;;;;;3.54;100.00;102274.50;5022589;28;20393;-85
2023/12/19 02:54:57;;;;;;;58.58;34.67;;;;;;;3.57;100.00;102258.72;5027802;28;20500;-84
2023/12/19 02:57:23;;;;;;;62.15;34.28;;;;;;;3.59;100.00;102256.94;5024737;28;20492;-84
2023/12/19 02:59:48;;;;;;;62.63;33.42;;;;;;;3.54;100.00;102256.06;5026796;28;20060;-84
2023/12/19 03:02:14;;;;;;;61.42;35.95;;;;;;;3.59;100.00;102249.91;5021495;28;20074;-84
2023/12/19 03:04:39;;;;;;;61.78;35.72;;;;;;;3.58;100.00;102247.28;5021397;28;20053;-85
2023/12/19 03:07:05;;;;;;;61.75;34.88;;;;;;;3.59;100.00;102233.25;5017756;28;20044;-83
2023/12/19 03:09:31;;;;;;;60.75;34.53;;;;;;;3.59;100.00;102222.72;5024855;28;20495;-85
2023/12/19 03:12:04;;;;;;;59.55;34.88;;;;;;;3.62;100.00;102220.09;4999039;28;20041;-85
2023/12/19 03:14:30;;;;;;;55.95;33.28;;;;;;;3.60;100.00;102212.19;5022591;28;20523;-83
2023/12/19 03:16:55;;;;;;;58.40;34.47;;;;;;;3.62;100.00;102214.81;5026324;28;20048;-85
2023/12/19 03:19:21;;;;;;;52.60;32.20;;;;;;;3.61;100.00;102216.59;5011889;28;20034;-86
2023/12/19 03:21:46;;;;;;;54.33;32.92;;;;;;;3.62;100.00;102206.91;5031431;28;20559;-83
2023/12/19 03:24:11;;;;;;;57.10;32.55;;;;;;;3.64;100.00;102210.44;5035521;28;20083;-82
2023/12/19 03:26:37;;;;;;;51.13;30.73;;;;;;;3.67;100.00;102200.75;5030747;28;20084;-82
2023/12/19 03:29:02;;;;;;;54.65;32.47;;;;;;;3.64;100.00;102190.25;5027228;28;20026;-84
2023/12/19 03:31:27;;;;;;;50.20;31.70;;;;;;;3.66;100.00;102179.72;5019044;28;20037;-85
2023/12/19 03:33:53;;;;;;;46.97;29.42;;;;;;;3.72;100.00;102171.78;5019753;28;20045;-83
2023/12/19 03:36:18;;;;;;;48.00;29.67;;;;;;;3.73;100.00;102179.72;5023583;28;20145;-85
2023/12/19 03:38:43;;;;;;;45.92;28.20;;;;;;;3.71;100.00;102159.50;5017878;28;20388;-84
2023/12/19 03:41:09;;;;;;;47.95;29.55;;;;;;;3.70;100.00;102149.88;5022179;28;20041;-84
2023/12/19 03:43:34;;;;;;;53.15;31.92;;;;;;;3.71;100.00;102141.06;5009305;28;20057;-83
2023/12/19 03:46:02;;;;;;;49.20;29.55;;;;;;;3.73;100.00;102153.38;5024708;28;20033;-84
2023/12/19 03:48:28;;;;;;;46.92;29.27;;;;;;;3.73;100.00;102145.47;5014569;28;20034;-82
2023/12/19 03:50:54;;;;;;;45.33;28.58;;;;;;;3.70;100.00;102121.78;5019215;28;20053;-82
2023/12/19 03:53:19;;;;;;;51.47;30.30;;;;;;;3.71;100.00;102131.41;5009884;28;20040;-82
2023/12/19 03:55:45;;;;;;;46.60;29.65;;;;;;;3.73;100.00;102134.94;5012068;28;20037;-82
2023/12/19 03:58:10;;;;;;;51.80;30.15;;;;;;;3.75;100.00;102140.19;5020386;28;20086;-81
2023/12/19 04:00:36;;;;;;;53.30;30.83;;;;;;;3.74;100.00;102141.09;5017885;28;20030;-82
2023/12/19 04:03:01;;;;;;;51.55;30.30;;;;;;;3.72;100.00;102122.66;5018380;28;20116;-83
2023/12/19 04:05:27;;;;;;;52.67;31.58;;;;;;;3.74;100.00;102114.75;5029410;28;20040;-83
2023/12/19 04:07:52;;;;;;;53.47;30.83;;;;;;;3.82;100.00;102117.38;5027243;28;20599;-83
2023/12/19 04:10:18;;;;;;;54.72;31.27;;;;;;;3.86;100.00;102116.47;5020753;28;20627;-82
2023/12/19 04:12:43;;;;;;;58.60;34.15;;;;;;;3.83;100.00;102113.84;5027025;28;20049;-83
2023/12/19 04:15:09;;;;;;;62.25;34.05;;;;;;;3.87;100.00;102116.47;5024852;28;20034;-84
2023/12/19 04:17:34;;;;;;;59.30;34.50;;;;;;;3.90;100.00;102103.28;5025902;28;20132;-83
2023/12/19 04:20:00;;;;;;;59.47;35.60;;;;;;;3.87;100.00;102099.78;4999108;28;20033;-83
2023/12/19 04:22:25;;;;;;;61.67;35.13;;;;;;;3.93;100.00;102105.94;5027076;28;20033;-83
2023/12/19 04:24:51;;;;;;;65.63;36.50;;;;;;;3.94;100.00;102120.84;5018960;28;20077;-83
2023/12/19 04:27:16;;;;;;;63.22;36.50;;;;;;;3.96;100.00;102105.88;5020113;28;20056;-83
2023/12/19 04:29:45;;;;;;;64.72;36.65;;;;;;;3.99;100.00;102097.13;5020766;28;20032;-83
2023/12/19 04:32:12;;;;;;;63.20;35.85;;;;;;;3.98;100.00;102092.75;5028006;28;20124;-83
2023/12/19 04:34:38;;;;;;;62.08;35.13;;;;;;;4.02;100.00;102083.06;5025252;28;20044;-82
2023/12/19 04:37:06;;;;;;;59.67;35.47;;;;;;;4.00;100.00;102070.75;5036104;28;20030;-83
2023/12/19 04:39:31;;;;;;;58.25;34.35;;;;;;;4.04;100.00;102070.75;5025479;28;20041;-83
2023/12/19 04:41:59;;;;;;;62.53;35.13;;;;;;;3.97;100.00;102048.81;5032281;28;20049;-84
2023/12/19 04:44:25;;;;;;;60.85;33.80;;;;;;;4.03;100.00;102051.44;5019835;28;20045;-84
2023/12/19 04:46:50;;;;;;;55.60;33.95;;;;;;;4.04;100.00;102057.56;5030902;28;20052;-82
2023/12/19 04:49:15;;;;;;;53.78;32.47;;;;;;;4.05;100.00;102044.38;5036018;28;20445;-83
2023/12/19 04:51:41;;;;;;;57.03;33.65;;;;;;;4.11;100.00;102051.41;5020254;28;20056;-83
2023/12/19 04:54:08;;;;;;;54.15;33.15;;;;;;;4.08;100.00;102039.09;5026641;28;20037;-82
2023/12/19 04:56:37;;;;;;;54.08;33.13;;;;;;;4.08;100.00;102030.34;5018415;28;20569;-83
2023/12/19 04:59:02;;;;;;;52.30;33.00;;;;;;;4.10;100.00;102031.22;5028383;28;20040;-81
2023/12/19 05:01:27;;;;;;;55.28;33.03;;;;;;;4.14;100.00;102031.19;5028343;28;20045;-84
2023/12/19 05:03:53;;;;;;;53.70;32.45;;;;;;;4.16;100.00;102018.88;5025596;28;20049;-83
2023/12/19 05:06:18;;;;;;;51.92;33.35;;;;;;;4.23;100.00;102028.50;5024500;28;20043;-83
2023/12/19 05:08:50;;;;;;;50.13;32.08;;;;;;;4.22;100.00;102020.59;5031739;28;20488;-82
2023/12/19 05:11:16;;;;;;;52.92;32.65;;;;;;;4.23;100.00;102009.19;5024855;28;20262;-83
2023/12/19 05:13:41;;;;;;;55.90;33.30;;;;;;;4.25;100.00;102015.31;5024190;28;20057;-84
2023/12/19 05:16:10;;;;;;;53.28;32.15;;;;;;;4.30;100.00;102024.03;5032472;28;20068;-83
2023/12/19 05:18:36;;;;;;;51.03;30.90;;;;;;;4.25;100.00;102018.81;5045618;28;20037;-84
2023/12/19 05:21:02;;;;;;;49.40;31.98;;;;;;;4.36;100.00;102024.03;5037862;28;20033;-83
2023/12/19 05:23:27;;;;;;;53.00;32.58;;;;;;;4.35;100.00;102030.19;5035287;28;20088;-83
2023/12/19 05:25:52;;;;;;;58.60;35.08;;;;;;;4.31;100.00;102022.31;5019884;28;20052;-84
2023/12/19 05:28:18;;;;;;;52.53;33.17;;;;;;;4.34;100.00;102024.91;5025698;28;20120;-84
2023/12/19 05:30:43;;;;;;;55.22;34.20;;;;;;;4.37;100.00;102024.91;5031246;28;20061;-84
2023/12/19 05:33:09;;;;;;;52.15;32.95;;;;;;;4.46;100.00;102023.06;5033750;28;20045;-83
2023/12/19 05:35:35;;;;;;;50.78;33.55;;;;;;;4.49;100.00;102038.88;5031856;28;20634;-84
2023/12/19 05:38:01;;;;;;;50.47;33.00;;;;;;;4.50;100.00;102042.38;5020738;28;20148;-84
2023/12/19 05:40:26;;;;;;;50.47;32.00;;;;;;;4.52;100.00;102039.75;5020737;28;20116;-84
2023/12/19 05:42:56;;;;;;;49.85;32.60;;;;;;;4.54;100.00;102035.34;5025919;28;20068;-84
2023/12/19 05:45:21;;;;;;;50.00;32.63;;;;;;;4.47;100.00;102003.75;5016725;28;20052;-84
2023/12/19 05:47:47;;;;;;;51.60;31.77;;;;;;;4.54;100.00;102020.38;5030294;28;20030;-84
2023/12/19 05:50:12;;;;;;;49.13;31.73;;;;;;;4.47;100.00;102005.47;5020903;28;20029;-83
2023/12/19 05:52:38;;;;;;;45.47;30.60;;;;;;;4.55;100.00;102018.63;5022334;28;20033;-84
2023/12/19 05:55:06;;;;;;;48.20;32.47;;;;;;;4.57;100.00;102006.31;5029119;28;20037;-83
2023/12/19 05:57:32;;;;;;;48.70;31.17;;;;;;;4.55;100.00;101997.53;5031614;28;20037;-83
2023/12/19 05:59:58;;;;;;;52.30;32.28;;;;;;;4.59;100.00;101999.25;5020455;28;20137;-81
2023/12/19 06:02:23;;;;;;;47.28;30.75;;;;;;;4.57;100.00;101979.94;5029703;28;20446;-82
2023/12/19 06:04:52;;;;;;;45.05;30.65;;;;;;;4.61;100.00;101981.66;5049200;28;20054;-83
2023/12/19 06:07:17;;;;;;;46.03;31.17;;;;;;;4.62;100.00;101986.06;5050782;28;20075;-82
2023/12/19 06:09:42;;;;;;;45.20;30.67;;;;;;;4.56;100.00;101980.84;5038893;28;20628;-84
2023/12/19 06:12:08;;;;;;;41.83;29.33;;;;;;;4.65;100.00;101992.19;5019048;28;20049;-84
2023/12/19 06:14:36;;;;;;;40.85;29.15;;;;;;;4.67;100.00;101981.59;5023957;28;20052;-84
2023/12/19 06:17:02;;;;;;;41.92;27.83;;;;;;;4.62;100.00;101968.47;5030773;28;20055;-84
2023/12/19 06:19:27;;;;;;;44.47;28.35;;;;;;;4.66;100.00;101964.91;5030359;28;20025;-84
2023/12/19 06:21:52;;;;;;;40.78;27.85;;;;;;;4.70;100.00;101960.50;5028980;28;20029;-84
2023/12/19 06:24:18;;;;;;;41.67;28.98;;;;;;;4.67;100.00;101965.78;5021659;28;20806;-83
2023/12/19 06:26:43;;;;;;;41.45;27.38;;;;;;;4.67;100.00;101957.88;5030432;28;20048;-84
2023/12/19 06:29:09;;;;;;;37.17;27.10;;;;;;;4.70;100.00;101955.22;5028653;28;20083;-83
2023/12/19 06:31:42;;;;;;;37.90;27.45;;;;;;;4.72;100.00;101953.44;5031994;28;20068;-83
2023/12/19 06:34:08;;;;;;;41.53;26.88;;;;;;;4.75;100.00;101962.19;5037950;28;20045;-83
2023/12/19 06:36:33;;;;;;;40.90;26.85;;;;;;;4.74;100.00;101963.09;5011883;28;20055;-83
2023/12/19 06:38:58;;;;;;;36.47;26.85;;;;;;;4.70;100.00;101963.13;5030407;28;20029;-83
2023/12/19 06:41:24;;;;;;;36.90;26.70;;;;;;;4.79;100.00;101967.44;5007005;28;20110;-84
2023/12/19 06:43:49;;;;;;;38.92;26.45;;;;;;;4.81;100.00;101965.66;5023700;28;20043;-83
2023/12/19 06:46:15;;;;;;;39.85;26.88;;;;;;;4.81;100.00;101961.28;5031703;28;20036;-83
2023/12/19 06:48:41;;;;;;;36.28;25.60;;;;;;;4.81;100.00;101961.28;5040637;28;20026;-82
2023/12/19 06:51:07;;;;;;;37.65;25.70;;;;;;;4.81;100.00;101958.66;5023142;28;20107;-83
2023/12/19 06:53:32;;;;;;;35.75;25.65;;;;;;;4.88;100.00;101957.69;5022106;28;20041;-83
2023/12/19 06:55:57;;;;;;;34.78;24.98;;;;;;;4.88;100.00;101962.09;5020614;28;20041;-84
2023/12/19 06:58:23;;;;;;;33.88;25.23;;;;;;;4.86;100.00;101967.38;5006450;28;20170;-83
2023/12/19 07:00:48;;;;;;;37.92;25.77;;;;;;;4.86;100.00;101962.09;5021787;28;20068;-83
2023/12/19 07:03:13;;;;;;;36.17;24.83;;;;;;;4.88;100.00;101964.72;5019249;28;20041;-84
2023/12/19 07:05:39;;;;;;;33.95;24.55;;;;;;;4.90;100.00;101968.22;5024291;28;20525;-84
2023/12/19 07:08:07;;;;;;;32.88;24.52;;;;;;;4.91;100.00;101964.69;5023457;28;20614;-83
2023/12/19 07:10:32;;;;;;;33.28;24.00;;;;;;;4.89;100.00;101953.28;5022902;28;20042;-84
2023/12/19 07:12:58;;;;;;;31.35;23.65;;;;;;;4.89;100.00;101953.28;5030348;28;20037;-85
2023/12/19 07:15:23;;;;;;;35.58;23.45;;;;;;;4.90;100.00;101948.00;5022885;28;20064;-85
2023/12/19 07:17:49;;;;;;;32.88;24.80;;;;;;;4.93;100.00;101945.34;5023617;28;20037;-84
2023/12/19 07:20:14;;;;;;;31.13;22.40;;;;;;;4.92;100.00;101940.06;5026779;28;20120;-84
2023/12/19 07:22:41;;;;;;;30.92;23.02;;;;;;;4.91;100.00;101940.97;5027255;28;20033;-84
2023/12/19 07:25:07;;;;;;;28.10;21.83;;;;;;;4.95;100.00;101937.41;5019415;28;20030;-84
2023/12/19 07:27:34;;;;;;;30.77;23.15;;;;;;;4.98;100.00;101946.16;5019337;28;20042;-85
2023/12/19 07:30:00;;;;;;;27.10;21.40;;;;;;;4.98;100.00;101929.47;5007101;28;20233;-83
2023/12/19 07:32:25;;;;;;;28.90;22.80;;;;;;;5.00;100.00;101925.03;5027867;28;20050;-83
2023/12/19 07:34:51;;;;;;;30.30;22.85;;;;;;;4.98;100.00;101938.25;5024122;28;20120;-82
2023/12/19 07:37:16;;;;;;;26.58;21.67;;;;;;;5.00;100.00;101938.22;5021326;28;20029;-83
2023/12/19 07:39:42;;;;;;;29.60;21.95;;;;;;;4.96;100.00;101934.72;5009829;28;20103;-85
2023/12/19 07:42:08;;;;;;;28.10;21.63;;;;;;;5.05;100.00;101936.41;5007495;28;20041;-85
2023/12/19 07:44:33;;;;;;;25.10;20.58;;;;;;;5.04;100.00;101936.44;5026416;28;20049;-85
2023/12/19 07:46:59;;;;;;;28.65;21.08;;;;;;;5.04;100.00;101933.78;5022106;28;20036;-84
2023/12/19 07:49:24;;;;;;;25.73;20.13;;;;;;;5.08;100.00;101940.78;5030033;28;20037;-85
2023/12/19 07:51:50;;;;;;;28.58;20.25;;;;;;;5.08;100.00;101940.78;5022183;28;20358;-84
2023/12/19 07:54:17;;;;;;;27.95;20.60;;;;;;;5.09;100.00;101942.53;5025049;28;20071;-84
2023/12/19 07:56:42;;;;;;;27.00;20.25;;;;;;;5.06;100.00;101918.78;5026697;28;20195;-82
2023/12/19 07:59:09;;;;;;;26.30;20.02;;;;;;;5.09;100.00;101930.19;5020105;28;20540;-81
2023/12/19 08:01:35;;;;;;;24.92;19.55;;;;;;;5.13;100.00;101925.75;5026575;28;20068;-83
2023/12/19 08:04:00;;;;;;;24.52;19.45;;;;;;;5.10;100.00;101909.94;5016700;28;20061;-85
2023/12/19 08:06:26;;;;;;;24.05;19.27;;;;;;;5.12;100.00;101919.63;5010099;28;20025;-84
2023/12/19 08:08:52;;;;;;;22.88;18.75;;;;;;;5.12;100.00;101908.19;5038285;28;20037;-85
2023/12/19 08:11:18;;;;;;;26.00;18.98;;;;;;;5.15;100.00;101918.72;5017537;28;20037;-84
2023/12/19 08:13:44;;;;;;;22.35;18.40;;;;;;;5.11;100.00;101914.38;4998623;28;20060;-85
2023/12/19 08:16:10;;;;;;;23.15;18.10;;;;;;;5.18;100.00;101919.56;5007836;28;20090;-85
2023/12/19 08:18:36;;;;;;;21.52;18.17;;;;;;;5.09;100.00;101898.53;5029684;28;20025;-84
2023/12/19 08:21:08;;;;;;;23.55;18.92;;;;;;;5.20;100.00;101922.16;5026167;28;20040;-85
2023/12/19 08:23:33;;;;;;;22.65;18.40;;;;;;;5.16;100.00;101917.81;5022454;28;20073;-86
2023/12/19 08:25:58;;;;;;;24.73;18.45;;;;;;;5.17;100.00;101909.88;5022501;28;20056;-86
2023/12/19 08:28:24;;;;;;;23.85;18.88;;;;;;;5.01;100.00;101895.09;5007376;28;20148;-84
2023/12/19 08:30:49;;;;;;;23.45;19.00;;;;;;;5.07;100.00;101910.00;5029361;28;20037;-83
2023/12/19 08:33:15;;;;;;;27.08;19.60;;;;;;;5.02;100.00;101903.88;5032405;28;20037;-83
2023/12/19 08:35:40;;;;;;;23.23;19.45;;;;;;;4.89;100.00;101890.84;5037363;28;20038;-83
2023/12/19 08:38:06;;;;;;;29.88;22.08;;;;;;;4.91;100.00;101898.75;5028381;28;20033;-83
2023/12/19 08:40:31;;;;;;;30.10;22.50;;;;;;;4.87;100.00;101897.03;5028283;28;20044;-82
2023/12/19 08:42:56;;;;;;;30.08;23.40;;;;;;;4.86;100.00;101911.13;5030439;28;20476;-83
2023/12/19 08:45:26;;;;;;;33.65;23.77;;;;;;;4.73;100.00;101903.31;5023872;28;20419;-83
2023/12/19 08:47:53;;;;;;;31.65;22.83;;;;;;;4.75;100.00;101904.16;5026925;28;20048;-83
2023/12/19 08:50:19;;;;;;;34.70;23.25;;;;;;;4.75;100.00;101892.75;5041200;28;20035;-83
2023/12/19 08:52:44;;;;;;;34.60;24.98;;;;;;;4.79;100.00;101897.09;5015975;28;20065;-83
2023/12/19 08:55:11;;;;;;;38.63;25.05;;;;;;;4.71;100.00;101894.53;5029353;28;20109;-82
2023/12/19 08:57:44;;;;;;;38.10;24.13;;;;;;;4.79;100.00;101897.09;5030397;28;20048;-81
2023/12/19 09:00:16;;;;;;;38.20;25.92;;;;;;;4.71;100.00;101888.38;5015209;28;20034;-82
2023/12/19 09:02:46;;;;;;;38.17;26.00;;;;;;;4.75;100.00;101890.09;5028235;28;20087;-82
2023/12/19 09:05:14;;;;;;;37.50;24.77;;;;;;;4.69;100.00;101880.50;5015359;28;20076;-82
2023/12/19 09:07:40;;;;;;;39.90;26.40;;;;;;;4.64;100.00;101870.88;5023377;28;20033;-82
2023/12/19 09:10:11;;;;;;;39.33;25.42;;;;;;;4.75;100.00;101882.19;5026296;28;20042;-81
2023/12/19 09:12:36;;;;;;;33.67;23.80;;;;;;;4.76;100.00;101883.94;5025054;28;20148;-81
2023/12/19 09:15:03;;;;;;;39.83;25.58;;;;;;;4.68;100.00;101869.94;5030855;28;20155;-83
2023/12/19 09:17:29;;;;;;;37.20;25.52;;;;;;;4.74;100.00;101873.41;5029509;28;20041;-82
2023/12/19 09:19:55;;;;;;;36.40;25.13;;;;;;;4.78;100.00;101887.44;5028703;28;20036;-82
2023/12/19 09:22:21;;;;;;;34.30;24.38;;;;;;;4.77;100.00;101869.88;5041949;28;20057;-82
2023/12/19 09:24:46;;;;;;;37.53;25.98;;;;;;;4.80;100.00;101874.22;5028329;28;20096;-82
2023/12/19 09:27:12;;;;;;;38.65;25.20;;;;;;;4.82;100.00;101870.69;5022463;28;20048;-83
2023/12/19 09:29:38;;;;;;;39.40;25.98;;;;;;;4.82;100.00;101867.19;5028867;28;20044;-82
2023/12/19 09:32:05;;;;;;;36.78;25.02;;;;;;;4.74;100.00;101852.31;5022376;28;20044;-82
2023/12/19 09:34:31;;;;;;;35.78;24.40;;;;;;;4.83;100.00;101866.28;5044694;28;20060;-82
2023/12/19 09:36:56;;;;;;;34.55;24.05;;;;;;;4.83;100.00;101876.84;5030432;28;20471;-82
2023/12/19 09:39:23;;;;;;;33.20;24.02;;;;;;;4.84;100.00;101868.03;5014858;28;20036;-83
2023/12/19 09:41:49;;;;;;;36.15;24.02;;;;;;;4.84;100.00;101855.72;5024940;28;20087;-83
2023/12/19 09:44:14;;;;;;;32.08;22.05;;;;;;;4.72;100.00;101840.91;5020727;28;20042;-83
2023/12/19 09:46:41;;;;;;;30.48;21.45;;;;;;;4.78;100.00;101844.38;5036243;28;20060;-82
2023/12/19 09:49:09;;;;;;;27.42;20.30;;;;;;;4.86;100.00;101856.59;5028344;28;20037;-84
2023/12/19 09:51:38;;;;;;;28.35;20.27;;;;;;;4.88;100.00;101856.56;5012446;28;20037;-84
2023/12/19 09:54:04;;;;;;;28.08;20.40;;;;;;;4.90;100.00;101846.88;5026269;28;20040;-83
2023/12/19 09:56:30;;;;;;;27.17;18.83;;;;;;;4.88;100.00;101846.88;5009094;28;20129;-83
2023/12/19 09:59:00;;;;;;;26.77;19.55;;;;;;;4.92;100.00;101835.41;5034371;28;20071;-83
2023/12/19 10:01:25;;;;;;;26.58;18.85;;;;;;;4.94;100.00;101840.69;5037292;28;20087;-83
2023/12/19 10:03:55;;;;;;;27.67;19.58;;;;;;;4.94;100.00;101835.41;5043556;28;20041;-83
2023/12/19 10:06:23;;;;;;;25.23;18.10;;;;;;;4.95;100.00;101824.81;5028501;28;20042;-84
2023/12/19 10:08:52;;;;;;;23.92;17.98;;;;;;;4.95;100.00;101824.81;5041659;28;20033;-82
2023/12/19 10:11:18;;;;;;;26.67;19.13;;;;;;;4.97;100.00;101819.50;5027121;28;20029;-84
2023/12/19 10:13:46;;;;;;;24.52;17.70;;;;;;;4.89;100.00;101801.16;5033959;28;20048;-84
2023/12/19 10:16:12;;;;;;;26.67;18.38;;;;;;;4.98;100.00;101810.72;5034579;28;20064;-84
2023/12/19 10:18:39;;;;;;;26.10;18.25;;;;;;;4.85;100.00;101778.34;5029720;28;20517;-83
2023/12/19 10:21:10;;;;;;;25.08;18.27;;;;;;;5.07;100.00;101825.56;5023675;28;20034;-84
2023/12/19 10:23:46;;;;;;;24.88;19.08;;;;;;;5.05;100.00;101822.06;5033005;28;20029;-82
2023/12/19 10:26:12;;;;;;;28.23;19.30;;;;;;;4.97;100.00;101791.38;5034257;28;20091;-83
2023/12/19 10:28:38;;;;;;;25.58;17.67;;;;;;;4.99;100.00;101791.34;5039265;28;20041;-82
2023/12/19 10:31:06;;;;;;;24.23;16.95;;;;;;;5.09;100.00;101800.88;5011582;28;20507;-82
2023/12/19 10:33:46;;;;;;;25.80;18.30;;;;;;;5.12;100.00;101805.28;5016463;28;20045;-82
2023/12/19 10:36:25;;;;;;;24.42;17.40;;;;;;;5.14;100.00;101792.91;5028564;28;20037;-84
2023/12/19 10:38:51;;;;;;;23.00;17.13;;;;;;;5.10;100.00;101783.28;5023719;28;20487;-83
2023/12/19 10:41:40;;;;;;;24.77;17.42;;;;;;;5.12;100.00;101763.91;5030507;28;20044;-83
2023/12/19 10:44:10;;;;;;;27.40;18.05;;;;;;;5.07;100.00;101756.97;5012979;28;20041;-83
2023/12/19 10:46:38;;;;;;;26.92;18.80;;;;;;;5.04;100.00;101739.41;5032851;28;20040;-81
2023/12/19 10:49:04;;;;;;;27.98;20.50;;;;;;;5.19;100.00;101759.44;5040017;28;20537;-82
2023/12/19 10:51:37;;;;;;;28.25;18.98;;;;;;;5.17;100.00;101763.84;5036398;28;20495;-83
2023/12/19 10:54:07;;;;;;;24.10;17.92;;;;;;;5.17;100.00;101758.56;5029728;28;20041;-81
2023/12/19 10:57:12;;;;;;;24.33;17.38;;;;;;;5.22;100.00;101732.97;5012420;28;20057;-81
2023/12/19 10:59:44;;;;;;;;;;;;;;;5.23;100.00;101738.25;4927996;29;20040;-81
2023/12/19 11:02:30;;;;;;;25.63;18.00;;;;;;;5.25;100.00;101738.22;4934491;29;20165;-82
2023/12/19 11:05:10;;;;;;;26.50;18.92;;;;;;;5.26;100.00;101718.84;4924919;29;20043;-81